Tera Jet — 5BBY4 — position and weather

sailwx.info

Track history (hours):
 
Tides and Currents Weather Stations Pressure Air Temp Water Temp Dewpoint Dewpoint Depression Visibility Wind Speed Wind Dir Waves Ship Positions

Tera Jet

Last reported at 2017-Oct-04 09:56 UTC. Time now 2017-Dec-11 17:19 UTC.
Position N 37°58' E 023°34'.
Warning: this ship's position is months out of date.

Length 146 m; draft 3.8 m.

Type: High speed craft. MMSI: 212260000.

Date/timePositionNaut miles runAvg speedWind from/ knotsBaromVisibWave heightAir tempDewpointWater temp
2017-Oct-04 09:56N 37°58' E 023°34'0 0.0
2017-Oct-04 09:24N 37°58' E 023°34'0 0.0
2017-Oct-02 17:16N 37°58' E 023°34'0 0.0
2017-Oct-02 17:00N 37°58' E 023°34'0 0.0
2017-Oct-02 16:28N 37°58' E 023°34'0 0.0
2017-Oct-02 15:56N 37°58' E 023°34'0 0.0
2017-Oct-02 15:23N 37°58' E 023°34'0 0.0
2017-Oct-02 15:00N 37°58' E 023°34'0 0.2
2017-Oct-02 14:31N 37°58' E 023°34'3 5.4
2017-Oct-02 14:01N 37°56' E 023°37'917.8
2017-Oct-02 13:30N 37°48' E 023°41'918.8
2017-Oct-02 13:00N 37°41' E 023°49'2217.7
2017-Oct-02 11:46N 37°60' E 024°03'2 0.1
2017-Oct-01 14:13N 38°01' E 024°01'314.5
2017-Oct-01 14:00N 38°01' E 024°05'3930.4
2017-Oct-01 12:43N 37°41' E 024°48'731.1
2017-Oct-01 12:30N 37°38' E 024°55'1325.7
2017-Oct-01 12:00N 37°32' E 025°09'611.7
2017-Oct-01 11:31N 37°29' E 025°16'3 6.7
2017-Oct-01 11:01N 37°28' E 025°19'0 0.6
2017-Oct-01 10:30N 37°28' E 025°19'0 0.0
2017-Oct-01 09:58N 37°28' E 025°19'0 0.0
2017-Oct-01 09:28N 37°28' E 025°19'0 0.1
2017-Oct-01 08:59N 37°28' E 025°19'0 0.0
2017-Oct-01 08:30N 37°28' E 025°19'0 0.0
2017-Oct-01 08:00N 37°27' E 025°19'0 0.6
2017-Oct-01 07:30N 37°28' E 025°19'918.5
2017-Oct-01 07:01N 37°32' E 025°09'1522.0
2017-Oct-01 06:21N 37°40' E 024°54'3530.4
2017-Oct-01 05:12N 37°57' E 024°16'731.4
2017-Oct-01 05:00N 37°59' E 024°08'  
2017-Sep-28 14:38N 38°01' E 024°01'213.2
2017-Sep-28 14:29N 38°02' E 024°04'4123.2
2017-Sep-28 12:43N 37°44' E 024°50'1027.1
2017-Sep-28 12:21N 37°37' E 024°60'925.5
2017-Sep-28 11:59N 37°32' E 025°09'612.7
2017-Sep-28 11:30N 37°29' E 025°16'3 5.7
2017-Sep-28 11:01N 37°27' E 025°19'1223.3
2017-Sep-28 10:31N 37°17' E 025°13'1224.2
2017-Sep-28 10:00N 37°05' E 025°08'1 0.5
2017-Sep-28 08:50N 37°05' E 025°08'823.6
2017-Sep-28 08:30N 37°13' E 025°10'1428.2
2017-Sep-28 08:00N 37°26' E 025°17'611.5
2017-Sep-28 07:30N 37°30' E 025°13'917.9
2017-Sep-28 07:00N 37°35' E 025°03'4424.3
2017-Sep-28 05:11N 37°56' E 024°14'626.1
2017-Sep-28 04:56N 37°59' E 024°07'5 0.3
2017-Sep-27 14:15N 38°01' E 024°02'4126.9
2017-Sep-27 12:43N 37°41' E 024°48'527.4
2017-Sep-27 12:31N 37°38' E 024°54'1426.8
2017-Sep-27 12:00N 37°32' E 025°09'612.3
2017-Sep-27 11:31N 37°29' E 025°16'3 6.6
2017-Sep-27 11:00N 37°28' E 025°19'1122.0
2017-Sep-27 10:31N 37°18' E 025°14'1325.5
2017-Sep-27 10:01N 37°06' E 025°08'1 0.8
2017-Sep-27 08:36N 37°05' E 025°08'216.9
2017-Sep-27 08:31N 37°07' E 025°08'1428.4
2017-Sep-27 08:01N 37°19' E 025°15'917.8
2017-Sep-27 07:30N 37°28' E 025°19'917.1
2017-Sep-27 07:00N 37°32' E 025°09'1326.7
2017-Sep-27 06:30N 37°38' E 024°54'3427.4
2017-Sep-27 05:16N 37°54' E 024°17'826.9
2017-Sep-27 04:57N 37°59' E 024°07'4 0.1
2017-Sep-25 14:20N 38°01' E 024°03'4126.3
2017-Sep-25 12:47N 37°41' E 024°48'726.7
2017-Sep-25 12:30N 37°37' E 024°56'1223.9
2017-Sep-25 12:01N 37°32' E 025°09'611.1
2017-Sep-25 11:31N 37°29' E 025°15'4 7.6
2017-Sep-25 11:01N 37°28' E 025°20'1021.0
2017-Sep-25 10:31N 37°18' E 025°14'1327.0
2017-Sep-25 10:01N 37°06' E 025°07'1 0.8
2017-Sep-25 08:41N 37°05' E 025°08'315.4
2017-Sep-25 08:31N 37°08' E 025°08'1427.7
2017-Sep-25 08:01N 37°20' E 025°16'816.2
2017-Sep-25 07:31N 37°28' E 025°19'916.8
2017-Sep-25 07:00N 37°32' E 025°09'1325.3
2017-Sep-25 06:30N 37°37' E 024°55'3427.6
2017-Sep-25 05:16N 37°54' E 024°18'927.2
2017-Sep-25 04:57N 37°59' E 024°08'6 0.4
2017-Sep-24 14:10N 38°01' E 024°01'215.0
2017-Sep-24 14:00N 38°01' E 024°04'4030.9
2017-Sep-24 12:43N 37°41' E 024°48'731.3
2017-Sep-24 12:31N 37°38' E 024°55'1325.1
2017-Sep-24 12:00N 37°32' E 025°09'510.4
2017-Sep-24 11:30N 37°29' E 025°15'4 8.3
2017-Sep-24 11:00N 37°28' E 025°20'1020.7
2017-Sep-24 10:31N 37°18' E 025°14'  
Track history (hours):
 
Tides and Currents Weather Stations Pressure Air Temp Water Temp Dewpoint Dewpoint Depression Visibility Wind Speed Wind Dir Waves Ship Positions

Tera Jet

Last reported at 2017-Oct-04 09:56 UTC. Time now 2017-Dec-11 17:19 UTC.
Position N 37°58' E 023°34'.
Warning: this ship's position is months out of date.

Length 146 m; draft 3.8 m.

Type: High speed craft. MMSI: 212260000.

Date/timePositionNaut miles runAvg speedWind from/ knotsBaromVisibWave heightAir tempDewpointWater temp
2017-Oct-04 09:56N 37°58' E 023°34'0 0.0
2017-Oct-04 09:24N 37°58' E 023°34'0 0.0
2017-Oct-02 17:16N 37°58' E 023°34'0 0.0
2017-Oct-02 17:00N 37°58' E 023°34'0 0.0
2017-Oct-02 16:28N 37°58' E 023°34'0 0.0
2017-Oct-02 15:56N 37°58' E 023°34'0 0.0
2017-Oct-02 15:23N 37°58' E 023°34'0 0.0
2017-Oct-02 15:00N 37°58' E 023°34'0 0.2
2017-Oct-02 14:31N 37°58' E 023°34'3 5.4
2017-Oct-02 14:01N 37°56' E 023°37'917.8
2017-Oct-02 13:30N 37°48' E 023°41'918.8
2017-Oct-02 13:00N 37°41' E 023°49'2217.7
2017-Oct-02 11:46N 37°60' E 024°03'2 0.1
2017-Oct-01 14:13N 38°01' E 024°01'314.5
2017-Oct-01 14:00N 38°01' E 024°05'3930.4
2017-Oct-01 12:43N 37°41' E 024°48'731.1
2017-Oct-01 12:30N 37°38' E 024°55'1325.7
2017-Oct-01 12:00N 37°32' E 025°09'611.7
2017-Oct-01 11:31N 37°29' E 025°16'3 6.7
2017-Oct-01 11:01N 37°28' E 025°19'0 0.6
2017-Oct-01 10:30N 37°28' E 025°19'0 0.0
2017-Oct-01 09:58N 37°28' E 025°19'0 0.0
2017-Oct-01 09:28N 37°28' E 025°19'0 0.1
2017-Oct-01 08:59N 37°28' E 025°19'0 0.0
2017-Oct-01 08:30N 37°28' E 025°19'0 0.0
2017-Oct-01 08:00N 37°27' E 025°19'0 0.6
2017-Oct-01 07:30N 37°28' E 025°19'918.5
2017-Oct-01 07:01N 37°32' E 025°09'1522.0
2017-Oct-01 06:21N 37°40' E 024°54'3530.4
2017-Oct-01 05:12N 37°57' E 024°16'731.4
2017-Oct-01 05:00N 37°59' E 024°08'  
2017-Sep-28 14:38N 38°01' E 024°01'213.2
2017-Sep-28 14:29N 38°02' E 024°04'4123.2
2017-Sep-28 12:43N 37°44' E 024°50'1027.1
2017-Sep-28 12:21N 37°37' E 024°60'925.5
2017-Sep-28 11:59N 37°32' E 025°09'612.7
2017-Sep-28 11:30N 37°29' E 025°16'3 5.7
2017-Sep-28 11:01N 37°27' E 025°19'1223.3
2017-Sep-28 10:31N 37°17' E 025°13'1224.2
2017-Sep-28 10:00N 37°05' E 025°08'1 0.5
2017-Sep-28 08:50N 37°05' E 025°08'823.6
2017-Sep-28 08:30N 37°13' E 025°10'1428.2
2017-Sep-28 08:00N 37°26' E 025°17'611.5
2017-Sep-28 07:30N 37°30' E 025°13'917.9
2017-Sep-28 07:00N 37°35' E 025°03'4424.3
2017-Sep-28 05:11N 37°56' E 024°14'626.1
2017-Sep-28 04:56N 37°59' E 024°07'5 0.3
2017-Sep-27 14:15N 38°01' E 024°02'4126.9
2017-Sep-27 12:43N 37°41' E 024°48'527.4
2017-Sep-27 12:31N 37°38' E 024°54'1426.8
2017-Sep-27 12:00N 37°32' E 025°09'612.3
2017-Sep-27 11:31N 37°29' E 025°16'3 6.6
2017-Sep-27 11:00N 37°28' E 025°19'1122.0
2017-Sep-27 10:31N 37°18' E 025°14'1325.5
2017-Sep-27 10:01N 37°06' E 025°08'1 0.8
2017-Sep-27 08:36N 37°05' E 025°08'216.9
2017-Sep-27 08:31N 37°07' E 025°08'1428.4
2017-Sep-27 08:01N 37°19' E 025°15'917.8
2017-Sep-27 07:30N 37°28' E 025°19'917.1
2017-Sep-27 07:00N 37°32' E 025°09'1326.7
2017-Sep-27 06:30N 37°38' E 024°54'3427.4
2017-Sep-27 05:16N 37°54' E 024°17'826.9
2017-Sep-27 04:57N 37°59' E 024°07'4 0.1
2017-Sep-25 14:20N 38°01' E 024°03'4126.3
2017-Sep-25 12:47N 37°41' E 024°48'726.7
2017-Sep-25 12:30N 37°37' E 024°56'1223.9
2017-Sep-25 12:01N 37°32' E 025°09'611.1
2017-Sep-25 11:31N 37°29' E 025°15'4 7.6
2017-Sep-25 11:01N 37°28' E 025°20'1021.0
2017-Sep-25 10:31N 37°18' E 025°14'1327.0
2017-Sep-25 10:01N 37°06' E 025°07'1 0.8
2017-Sep-25 08:41N 37°05' E 025°08'315.4
2017-Sep-25 08:31N 37°08' E 025°08'1427.7
2017-Sep-25 08:01N 37°20' E 025°16'816.2
2017-Sep-25 07:31N 37°28' E 025°19'916.8
2017-Sep-25 07:00N 37°32' E 025°09'1325.3
2017-Sep-25 06:30N 37°37' E 024°55'3427.6
2017-Sep-25 05:16N 37°54' E 024°18'927.2
2017-Sep-25 04:57N 37°59' E 024°08'6 0.4
2017-Sep-24 14:10N 38°01' E 024°01'215.0
2017-Sep-24 14:00N 38°01' E 024°04'4030.9
2017-Sep-24 12:43N 37°41' E 024°48'731.3
2017-Sep-24 12:31N 37°38' E 024°55'1325.1
2017-Sep-24 12:00N 37°32' E 025°09'510.4
2017-Sep-24 11:30N 37°29' E 025°15'4 8.3
2017-Sep-24 11:00N 37°28' E 025°20'1020.7
2017-Sep-24 10:31N 37°18' E 025°14'  

Dump ship's entire track history